Have a Safe July 4th! 

Flight Track Log - Related Links

Times and Time Zones

All times are in EDT time to prevent confusion due to time zone crossing. See the SKW2975 flight status page for this flight to view local times or setup timezone preferences in your user account.

Time Position Orientation Groundspeed Altitude Reporting Facility
EDT Latitude Longitude Course Direction KTS MPH feet Rate Location/Type
Wed 10:33:04 AM 31.8203 -106.6069 289° West 309 356 10,300  Level Albuquerque Center
Wed 10:34:06 AM 31.8453 -106.6928 289° West 282 325 12,500 2,098 Climbing Albuquerque Center
Wed 10:35:07 AM 31.8622 -106.7861 282° West 290 334 14,600 1,707 Climbing Albuquerque Center
Wed 10:36:09 AM 31.8833 -106.9081 282° West 320 368 16,000 1,452 Climbing Albuquerque Center
Wed 10:37:11 AM 31.9011 -107.0158 281° West 334 384 17,600 1,210 Climbing Albuquerque Center
Wed 10:38:13 AM 31.9206 -107.1261 282° West 339 390 18,500 1,210 Climbing Albuquerque Center
Wed 10:39:15 AM 31.9394 -107.2364 281° West 343 395 20,100 1,403 Climbing Albuquerque Center
Wed 10:40:17 AM 31.9581 -107.3467 281° West 342 394 21,400 1,161 Climbing Albuquerque Center
Wed 10:41:19 AM 31.9772 -107.4608 281° West 350 403 22,500 1,016 Climbing Albuquerque Center
Wed 10:42:21 AM 31.9972 -107.5772 281° West 358 412 23,500 968 Climbing Albuquerque Center
Wed 10:43:23 AM 32.0161 -107.6972 281° West 364 419 24,500 1,016 Climbing Albuquerque Center
Wed 10:44:25 AM 32.0414 -107.8436 282° West 374 430 25,600 968 Climbing Albuquerque Center
Wed 10:45:27 AM 32.0619 -107.9661 281° West 380 437 26,500 780 Climbing Albuquerque Center
Wed 10:46:28 AM 32.0822 -108.0900 281° West 382 440 27,200 634 Climbing Albuquerque Center
Wed 10:47:30 AM 32.1019 -108.2119 281° West 390 449 27,800 387 Climbing Albuquerque Center
Wed 10:48:32 AM 32.1222 -108.3386 281° West 395 455 28,000 97 Climbing Albuquerque Center
Wed 10:49:34 AM 32.1475 -108.4892 281° West 394 453 28,000  Level Albuquerque Center
Wed 10:50:36 AM 32.1675 -108.6158 281° West 394 453 28,000  Level Albuquerque Center
Wed 10:51:38 AM 32.1875 -108.7414 281° West 393 452 28,000  Level Albuquerque Center
Wed 10:52:40 AM 32.2064 -108.8683 280° West 394 453 28,000  Level Albuquerque Center
Wed 10:53:42 AM 32.2281 -108.9983 281° West 401 461 28,000  Level Albuquerque Center
Wed 10:54:44 AM 32.2475 -109.1283 280° West 403 464 28,000  Level Albuquerque Center
Wed 10:55:46 AM 32.2739 -109.2867 281° West 409 471 28,000  Level Albuquerque Center
Wed 10:56:48 AM 32.3050 -109.4150 286° West 409 471 28,000  Level Albuquerque Center
Wed 10:57:50 AM 32.3367 -109.5444 286° West 411 473 28,000 -242 Level Albuquerque Center
Wed 10:58:52 AM 32.3678 -109.6733 286° West 411 473 27,500 -581 Descending Albuquerque Center
Wed 10:59:54 AM 32.3978 -109.8006 286° West 407 468 26,800 -726 Descending Albuquerque Center
Wed 11:00:56 AM 32.4375 -109.9558 287° West 412 474 26,000 -726 Descending Albuquerque Center
Wed 11:01:58 AM 32.4675 -110.0808 286° West 401 461 25,300 -677 Descending Albuquerque Center
Wed 11:03:00 AM 32.4969 -110.2042 286° West 395 455 24,600 -629 Descending Albuquerque Center
Wed 11:04:02 AM 32.5264 -110.3256 286° West 391 450 24,000 -290 Descending Albuquerque Center
Wed 11:05:04 AM 32.5544 -110.4453 286° West 385 443 24,000  Level Albuquerque Center
Wed 11:06:06 AM 32.5881 -110.5903 285° West 381 438 24,000 -48 Level Albuquerque Center
Wed 11:07:08 AM 32.6458 -110.6961 303° West 383 441 23,900 -629 Descending Albuquerque Center
Wed 11:08:10 AM 32.7025 -110.8008 303° West 379 436 22,700 -1,306 Descending Albuquerque Center
Wed 11:09:12 AM 32.7583 -110.9044 303° West 375 432 21,200 -1,694 Descending Albuquerque Center
Wed 11:10:14 AM 32.8103 -111.0008 303° West 355 409 19,200 -1,935 Descending Albuquerque Center
Wed 11:11:16 AM 32.8594 -111.0983 301° West 345 397 17,200 -1,935 Descending Albuquerque Center
Wed 11:12:18 AM 32.9158 -111.2150 300° West 339 390 15,200 -1,680 Descending Albuquerque Center
Wed 11:13:21 AM 32.9569 -111.3036 299° West 310 357 13,700 -1,440 Descending Albuquerque Center
Wed 11:14:23 AM 32.9961 -111.3878 299° West 292 336 12,200 -1,306 Descending Albuquerque Center
Wed 11:15:25 AM 33.0372 -111.4689 301° West 286 329 11,000 -1,065 Descending Albuquerque Center
Wed 11:16:27 AM 33.0778 -111.5489 301° West 282 325 10,000 -484 Descending Albuquerque Center
Wed 11:17:29 AM 33.1181 -111.6272 302° West 277 319 10,000  Level Albuquerque Center
Wed 11:18:31 AM 33.1544 -111.7014 300° West 261 300 10,000  Level Albuquerque Center
Wed 11:19:33 AM 33.1967 -111.7850 301° West 247 284 10,000  Level Albuquerque Center
Wed 11:20:35 AM 33.2308 -111.8517 302° West 237 273 10,000 -242 Level Albuquerque Center
Wed 11:21:37 AM 33.2644 -111.9181 301° West 233 268 9,500 -581 Descending Albuquerque Center
Wed 11:22:39 AM 33.2975 -111.9850 301° West 233 268 8,800 -823 Descending Albuquerque Center
Wed 11:23:41 AM 33.3306 -112.0511 301° West 232 267 7,800 -871 Descending Albuquerque Center
Wed 11:24:43 AM 33.3436 -112.1222 282° West 221 254 7,000 -726 Descending Albuquerque Center
Wed 11:25:45 AM 33.3428 -112.2014 269° West 198 228 6,300 -823 Descending Albuquerque Center
Wed 11:26:47 AM 33.3833 -112.2225 337° Northwest 195 224 5,300 -823 Descending Albuquerque Center
Wed 11:27:49 AM 33.4153 -112.1767 50° Northeast 190 219 4,600 -1,016 Descending Albuquerque Center
Wed 11:28:51 AM 33.4283 -112.1236 74° East 170 196 3,200 -1,258 Descending Albuquerque Center
Wed 11:29:53 AM 33.4286 -112.0758 90° East 147 169 2,000 -919 Descending Albuquerque Center
Wed 11:30:55 AM 33.4292 -112.0283 89° East 144 166 1,300 -677 Descending Albuquerque Center

Login

Don't have an account? Register now (free) for customized features, flight alerts, and more!